createdAt,value
2019-02-18T00:02:07.217Z,7.80
2019-02-18T00:07:14.768Z,7.50
2019-02-18T00:12:19.185Z,7.40
2019-02-18T00:17:24.052Z,7.10
2019-02-18T00:22:29.207Z,6.90
2019-02-18T00:27:34.819Z,6.90
2019-02-18T00:32:40.039Z,7.50
2019-02-18T00:37:45.086Z,7.80
2019-02-18T00:42:50.008Z,7.90
2019-02-18T00:47:55.257Z,8.00
2019-02-18T00:53:00.124Z,7.90
2019-02-18T00:58:05.481Z,7.90
2019-02-18T01:03:10.481Z,8.00
2019-02-18T01:08:15.387Z,8.00
2019-02-18T01:13:20.348Z,7.50
2019-02-18T01:18:25.232Z,6.10
2019-02-18T01:23:30.209Z,5.90
2019-02-18T01:28:35.405Z,6.40
2019-02-18T01:33:40.632Z,6.50
2019-02-18T01:38:46.081Z,6.50
2019-02-18T01:43:50.993Z,6.60
2019-02-18T01:48:56.623Z,6.50
2019-02-18T01:54:01.507Z,6.40
2019-02-18T01:59:06.744Z,6.90
2019-02-18T02:04:12.263Z,7.00
2019-02-18T02:09:17.221Z,7.10
2019-02-18T02:14:22.189Z,7.10
2019-02-18T02:19:27.394Z,7.10
2019-02-18T02:24:32.277Z,7.10
2019-02-18T02:29:37.169Z,7.30
2019-02-18T02:34:42.042Z,7.20
2019-02-18T02:39:46.909Z,7.20
2019-02-18T02:44:51.828Z,7.20
2019-02-18T02:49:56.954Z,7.00
2019-02-18T02:55:02.768Z,7.10
2019-02-18T03:00:09.418Z,7.00
2019-02-18T03:05:14.607Z,6.90
2019-02-18T03:10:19.836Z,6.90
2019-02-18T03:15:24.833Z,7.00
2019-02-18T03:20:29.977Z,7.00
2019-02-18T03:25:34.956Z,7.10
2019-02-18T03:30:49.491Z,7.00
2019-02-18T03:35:54.625Z,6.90
2019-02-18T03:41:03.127Z,6.80
2019-02-18T03:46:06.375Z,6.60
2019-02-18T03:51:11.559Z,6.60
2019-02-18T03:56:16.549Z,6.50
2019-02-18T04:01:21.874Z,6.90
2019-02-18T04:06:27.007Z,6.90
2019-02-18T04:11:32.397Z,7.00
2019-02-18T04:16:37.751Z,7.10
2019-02-18T04:21:45.441Z,7.10
2019-02-18T04:26:50.250Z,7.10
2019-02-18T04:31:55.459Z,7.10
2019-02-18T04:37:00.248Z,7.10
2019-02-18T04:42:05.140Z,7.10
2019-02-18T04:47:10.149Z,7.20
2019-02-18T04:52:15.745Z,7.10
2019-02-18T04:57:20.612Z,7.10
2019-02-18T05:02:26.090Z,7.10
2019-02-18T05:07:31.538Z,7.10
2019-02-18T05:12:36.687Z,7.10
2019-02-18T05:17:41.725Z,7.10
2019-02-18T05:22:46.850Z,7.00
2019-02-18T05:27:51.740Z,7.00
2019-02-18T05:32:57.238Z,6.90
2019-02-18T05:38:02.809Z,6.90
2019-02-18T05:43:08.429Z,6.70
2019-02-18T05:48:14.169Z,6.70
2019-02-18T05:53:19.068Z,6.80
2019-02-18T05:58:24.033Z,6.80
2019-02-18T06:03:28.803Z,7.00
2019-02-18T06:08:33.590Z,7.00
2019-02-18T06:13:38.940Z,6.90
2019-02-18T06:18:44.083Z,6.40
2019-02-18T06:23:51.325Z,6.40
2019-02-18T06:28:56.433Z,5.70
2019-02-18T06:34:01.281Z,5.80
2019-02-18T06:39:07.250Z,6.60
2019-02-18T06:44:29.363Z,6.00
2019-02-18T06:49:34.970Z,4.90
2019-02-18T06:54:40.490Z,4.60
2019-02-18T06:59:54.512Z,4.20
2019-02-18T07:05:10.483Z,4.40
2019-02-18T07:10:24.025Z,5.10
2019-02-18T07:15:29.594Z,5.20
2019-02-18T07:20:34.516Z,4.90
2019-02-18T07:25:39.873Z,5.00
2019-02-18T07:30:45.077Z,5.40
2019-02-18T07:35:50.488Z,5.50
2019-02-18T07:40:55.526Z,5.50
2019-02-18T07:46:00.599Z,5.80
2019-02-18T07:51:05.574Z,6.00
2019-02-18T07:56:10.429Z,6.20
2019-02-18T08:01:15.705Z,6.40
2019-02-18T08:06:20.794Z,6.50
2019-02-18T08:11:25.665Z,6.60
2019-02-18T08:16:30.657Z,6.60
2019-02-18T08:21:35.457Z,6.10
2019-02-18T08:26:40.457Z,6.00
2019-02-18T08:31:45.405Z,6.50
2019-02-18T08:36:50.412Z,6.50
2019-02-18T08:41:55.713Z,6.60
2019-02-18T08:47:00.632Z,6.80
2019-02-18T08:52:05.544Z,7.00
2019-02-18T08:57:10.560Z,7.10
2019-02-18T09:02:15.451Z,7.20
2019-02-18T09:07:20.615Z,7.50
2019-02-18T09:12:25.579Z,7.70
2019-02-18T09:17:30.893Z,7.90
2019-02-18T09:23:03.772Z,8.10
2019-02-18T09:28:08.975Z,8.40
2019-02-18T09:33:13.892Z,8.60
2019-02-18T09:38:24.938Z,8.80
2019-02-18T09:43:25.467Z,9.00
2019-02-18T09:48:30.813Z,9.10
2019-02-18T09:53:35.968Z,9.50
2019-02-18T09:58:40.870Z,9.50
2019-02-18T10:03:45.893Z,9.90
2019-02-18T10:08:51.305Z,10.10
2019-02-18T10:13:56.429Z,10.20
2019-02-18T10:19:01.280Z,10.30
2019-02-18T10:24:06.433Z,10.50
2019-02-18T10:29:11.395Z,10.60
2019-02-18T10:34:16.303Z,10.60
2019-02-18T10:39:21.555Z,10.60
2019-02-18T10:44:26.453Z,10.80
2019-02-18T10:49:31.836Z,11.00
2019-02-18T10:54:37.119Z,11.10
2019-02-18T10:59:42.077Z,11.40
2019-02-18T11:04:47.689Z,11.80
2019-02-18T11:09:52.588Z,11.80
2019-02-18T11:14:57.403Z,11.90
2019-02-18T11:20:02.706Z,12.20
2019-02-18T11:25:08.993Z,12.40
2019-02-18T11:30:14.530Z,12.70
2019-02-18T11:35:19.529Z,12.80
2019-02-18T11:40:24.574Z,12.90
2019-02-18T11:45:29.757Z,13.10
2019-02-18T11:50:35.072Z,13.20
2019-02-18T11:55:39.963Z,13.40
2019-02-18T12:00:45.077Z,13.60
2019-02-18T12:05:50.321Z,13.80
2019-02-18T12:10:55.925Z,14.10
2019-02-18T12:16:00.898Z,14.20
2019-02-18T12:21:06.185Z,14.40
2019-02-18T12:26:11.177Z,14.40
2019-02-18T12:31:16.522Z,14.60
2019-02-18T12:36:21.688Z,14.60
2019-02-18T12:41:26.967Z,14.80
2019-02-18T12:46:32.316Z,14.80
2019-02-18T12:51:37.569Z,14.80
2019-02-18T12:56:42.999Z,14.70
2019-02-18T13:01:47.967Z,14.70
2019-02-18T13:06:52.987Z,14.80
2019-02-18T13:17:07.203Z,14.50
2019-02-18T13:22:12.434Z,14.50
2019-02-18T13:27:17.670Z,14.60
2019-02-18T13:32:22.890Z,14.60
2019-02-18T13:37:27.916Z,14.60
2019-02-18T13:42:33.157Z,14.60
2019-02-18T13:47:38.961Z,14.70
2019-02-18T13:52:44.012Z,14.80
2019-02-18T13:57:49.221Z,14.80
2019-02-18T14:02:54.444Z,14.90
2019-02-18T14:07:59.265Z,14.80
2019-02-18T14:13:04.553Z,14.80
2019-02-18T14:18:10.031Z,14.70
2019-02-18T14:23:15.923Z,14.60
2019-02-18T14:28:21.162Z,13.10
2019-02-18T14:33:26.358Z,14.60
2019-02-18T14:38:31.449Z,14.50
2019-02-18T14:43:36.710Z,14.50
2019-02-18T14:48:41.693Z,14.60
2019-02-18T14:53:47.285Z,14.70
2019-02-18T14:58:52.887Z,14.60
2019-02-18T15:03:58.393Z,14.70
2019-02-18T15:09:04.337Z,14.70
2019-02-18T15:14:09.506Z,14.70
2019-02-18T15:19:14.794Z,14.70
2019-02-18T15:24:19.869Z,14.70
2019-02-18T15:29:27.640Z,14.90
2019-02-18T15:34:37.379Z,14.90
2019-02-18T15:39:42.881Z,15.10
2019-02-18T15:44:48.503Z,15.10
2019-02-18T15:49:53.441Z,15.30
2019-02-18T15:54:58.660Z,15.50
2019-02-18T16:00:04.086Z,15.30
2019-02-18T16:05:08.997Z,14.90
2019-02-18T16:10:13.848Z,14.70
2019-02-18T16:15:19.292Z,14.60
2019-02-18T16:20:24.161Z,14.60
2019-02-18T16:25:29.975Z,14.40
2019-02-18T16:30:35.053Z,14.30
2019-02-18T16:35:40.213Z,14.10
2019-02-18T16:40:45.120Z,14.00
2019-02-18T16:45:50.021Z,13.80
2019-02-18T16:50:55.461Z,13.70
2019-02-18T16:56:00.618Z,13.60
2019-02-18T17:01:06.859Z,13.60
2019-02-18T17:06:11.992Z,13.50
2019-02-18T17:11:16.927Z,13.20
2019-02-18T17:16:22.289Z,13.20
2019-02-18T17:21:27.465Z,13.00
2019-02-18T17:26:32.639Z,13.00
2019-02-18T17:31:37.658Z,12.80
2019-02-18T17:36:42.586Z,12.70
2019-02-18T17:41:47.445Z,12.70
2019-02-18T17:46:53.033Z,12.50
2019-02-18T17:51:58.254Z,12.50
2019-02-18T17:57:03.452Z,12.40
2019-02-18T18:02:08.845Z,12.40
2019-02-18T18:07:14.370Z,12.30
2019-02-18T18:12:19.560Z,12.20
2019-02-18T18:17:24.632Z,12.20
2019-02-18T18:22:29.648Z,12.10
2019-02-18T18:27:35.513Z,12.00
2019-02-18T18:32:41.083Z,11.90
2019-02-18T18:37:46.335Z,11.90
2019-02-18T18:42:51.279Z,11.90
2019-02-18T18:47:56.179Z,11.80
2019-02-18T18:53:01.514Z,11.80
2019-02-18T18:58:06.729Z,11.60
2019-02-18T19:03:12.242Z,11.50
2019-02-18T19:08:17.045Z,11.50
2019-02-18T19:13:21.941Z,11.50
2019-02-18T19:18:27.896Z,11.40
2019-02-18T19:23:33.826Z,11.30
2019-02-18T19:28:40.424Z,11.30
2019-02-18T19:33:45.766Z,11.30
2019-02-18T19:38:51.557Z,11.30
2019-02-18T19:43:56.513Z,11.20
2019-02-18T19:49:01.938Z,11.20
2019-02-18T19:54:06.847Z,11.10
2019-02-18T19:59:11.806Z,11.10
2019-02-18T20:04:16.980Z,11.00
2019-02-18T20:09:22.654Z,11.00
2019-02-18T20:14:27.901Z,10.90
2019-02-18T20:19:32.850Z,10.90
2019-02-18T20:24:38.225Z,10.80
2019-02-18T20:29:43.324Z,10.80
2019-02-18T20:34:48.465Z,10.70
2019-02-18T20:39:55.429Z,10.70
2019-02-18T20:45:00.389Z,10.70
2019-02-18T20:50:06.268Z,10.70
2019-02-18T20:55:11.948Z,10.70
2019-02-18T21:00:19.119Z,10.70
2019-02-18T21:05:24.037Z,10.60
2019-02-18T21:10:29.479Z,10.60
2019-02-18T21:15:34.517Z,10.60
2019-02-18T21:20:39.787Z,10.50
2019-02-18T21:25:44.769Z,10.60
2019-02-18T21:30:50.492Z,10.50
2019-02-18T21:35:55.764Z,10.50
2019-02-18T21:41:00.985Z,10.40
2019-02-18T21:46:06.444Z,10.40
2019-02-18T21:51:12.054Z,10.50
2019-02-18T21:56:17.669Z,10.40
2019-02-18T22:01:23.065Z,10.40
2019-02-18T22:06:28.125Z,10.40
2019-02-18T22:11:33.675Z,10.30
2019-02-18T22:16:38.557Z,10.30
2019-02-18T22:21:44.040Z,10.30
2019-02-18T22:26:49.063Z,10.30
2019-02-18T22:31:54.709Z,10.30
2019-02-18T22:37:01.256Z,10.30
2019-02-18T22:42:06.679Z,10.20
2019-02-18T22:47:11.892Z,10.20
2019-02-18T22:52:17.481Z,11.70
2019-02-18T22:57:22.712Z,10.20
2019-02-18T23:02:27.704Z,10.10
2019-02-18T23:07:32.968Z,10.10
2019-02-18T23:12:38.326Z,10.10
2019-02-18T23:17:43.567Z,10.10
2019-02-18T23:22:49.223Z,10.10
2019-02-18T23:27:54.233Z,10.10
2019-02-18T23:32:59.208Z,10.00
2019-02-18T23:38:04.201Z,10.00
2019-02-18T23:43:09.443Z,10.00
2019-02-18T23:48:14.342Z,10.00
2019-02-18T23:53:19.588Z,10.00
2019-02-18T23:58:24.672Z,9.90
